Terminal Aerodrome Forecast
Issued by NWS

Home | Current Version | Previous Version | Text Only | Print | Product List | Glossary On
Versions: 1 2 3 4 5 6 7 8 9 10 11 12 13 14 15 16 17 18 19 20 21 22 23 24
633
FTUS41 KBUF 252320
TAFJHW
TAF
KJHW 252320Z 2600/2624 15005KT P6SM OVC050
     FM260300 13007KT P6SM BKN025
     FM260600 12004KT P6SM BKN015
     FM261400 VRB03KT P6SM BKN025
     FM261700 14005KT P6SM SCT035 SCT250
     FM262100 18008KT P6SM SCT045 SCT250
      AMD LTD TO CLD VIS AND WIND=

USA.gov is the U.S. government's official web portal to all federal, state and local government web resources and services.